Time,TemperatureF,DewpointF,PressureIn,WindDirection,WindDirectionDegrees,WindSpeedMPH,WindSpeedGustMPH,Humidity,HourlyPrecipIn,Conditions,Clouds,dailyrainin,SoftwareType,DateUTC
2016-12-08 00:23:00,53.0,43.0,-100.00,West,272,3.0,7.0,70,-99.99,,,-99.99,,2016-12-08 08:23:00,
2016-12-08 00:34:00,53.0,43.0,-100.00,West,272,3.0,7.0,70,-99.99,,,-99.99,,2016-12-08 08:34:00,
2016-12-08 00:44:00,53.0,43.0,-100.00,West,272,3.0,7.0,70,-99.99,,,-99.99,,2016-12-08 08:44:00,
2016-12-08 00:53:00,53.0,43.0,-100.00,West,272,3.0,7.0,70,-99.99,,,-99.99,,2016-12-08 08:53:00,
2016-12-08 01:23:00,52.0,42.0,-100.00,West,277,3.0,6.0,68,-99.99,,,-99.99,,2016-12-08 09:23:00,
2016-12-08 01:33:00,52.0,42.0,-100.00,West,277,3.0,6.0,68,-99.99,,,-99.99,,2016-12-08 09:33:00,
2016-12-08 01:43:00,52.0,42.0,-100.00,West,277,3.0,6.0,68,-99.99,,,-99.99,,2016-12-08 09:43:00,
2016-12-08 01:53:00,52.0,42.0,-100.00,West,277,3.0,6.0,68,-99.99,,,-99.99,,2016-12-08 09:53:00,
2016-12-08 02:23:00,53.0,42.0,-100.00,West,264,2.0,5.0,66,-99.99,,,-99.99,,2016-12-08 10:23:00,
2016-12-08 03:23:00,52.0,41.0,-100.00,WSW,258,2.0,5.0,65,-99.99,,,-99.99,,2016-12-08 11:23:00,
2016-12-08 04:23:00,51.0,41.0,-100.00,WNW,298,1.0,3.0,68,-99.99,,,-99.99,,2016-12-08 12:23:00,
2016-12-08 05:23:00,52.0,42.0,-100.00,NNW,330,1.0,3.0,68,-99.99,,,-99.99,,2016-12-08 13:23:00,
2016-12-08 06:23:00,52.0,42.0,-100.00,North,354,1.0,2.0,68,-99.99,,,-99.99,,2016-12-08 14:23:00,
2016-12-08 06:34:00,52.0,42.0,-100.00,North,354,1.0,2.0,68,-99.99,,,-99.99,,2016-12-08 14:34:00,
2016-12-08 06:44:00,52.0,42.0,-100.00,North,354,1.0,2.0,68,-99.99,,,-99.99,,2016-12-08 14:44:00,
2016-12-08 06:53:00,52.0,42.0,-100.00,North,354,1.0,2.0,68,-99.99,,,-99.99,,2016-12-08 14:53:00,
2016-12-08 06:56:00,51.0,40.0,-100.00,SSW,204,1.0,3.0,67,-99.99,,,-99.99,,2016-12-08 14:56:00,
2016-12-08 07:23:00,51.0,40.0,-100.00,SSW,204,1.0,3.0,67,-99.99,,,-99.99,,2016-12-08 15:23:00,
2016-12-08 07:33:00,51.0,40.0,-100.00,SSW,204,1.0,3.0,67,-99.99,,,-99.99,,2016-12-08 15:33:00,
2016-12-08 07:43:00,51.0,40.0,-100.00,SSW,204,1.0,3.0,67,-99.99,,,-99.99,,2016-12-08 15:43:00,
2016-12-08 08:23:00,52.0,41.0,-100.00,South,171,2.0,3.0,66,-99.99,,,-99.99,,2016-12-08 16:23:00,
2016-12-08 08:33:00,52.0,41.0,-100.00,South,171,2.0,3.0,66,-99.99,,,-99.99,,2016-12-08 16:33:00,
2016-12-08 08:43:00,52.0,41.0,-100.00,South,171,2.0,3.0,66,-99.99,,,-99.99,,2016-12-08 16:43:00,
2016-12-08 08:55:00,52.0,41.0,-100.00,South,171,2.0,3.0,66,-99.99,,,-99.99,,2016-12-08 16:55:00,
2016-12-08 09:23:00,56.0,42.0,-100.00,West,273,2.0,4.0,60,-99.99,,,-99.99,,2016-12-08 17:23:00,
2016-12-08 09:33:00,56.0,42.0,-100.00,West,273,2.0,4.0,60,-99.99,,,-99.99,,2016-12-08 17:33:00,
2016-12-08 09:47:00,56.0,42.0,-100.00,West,273,2.0,-999.0,60,-99.99,,,-99.99,,2016-12-08 17:47:00,
2016-12-08 09:54:00,56.0,42.0,-100.00,West,273,2.0,4.0,60,-99.99,,,-99.99,,2016-12-08 17:54:00,
2016-12-08 10:23:00,57.0,44.0,-100.00,West,278,2.0,5.0,62,-99.99,,,-99.99,,2016-12-08 18:23:00,
2016-12-08 10:34:00,57.0,44.0,-100.00,West,278,2.0,5.0,62,-99.99,,,-99.99,,2016-12-08 18:34:00,
2016-12-08 10:44:00,57.0,44.0,-100.00,West,278,2.0,5.0,62,-99.99,,,-99.99,,2016-12-08 18:44:00,
2016-12-08 10:53:00,57.0,44.0,-100.00,West,278,2.0,5.0,62,-99.99,,,-99.99,,2016-12-08 18:53:00,
2016-12-08 11:23:00,62.0,45.0,-100.00,West,280,2.0,10.0,53,-99.99,,,-99.99,,2016-12-08 19:23:00,
2016-12-08 11:35:00,62.0,45.0,-100.00,West,280,2.0,10.0,53,-99.99,,,-99.99,,2016-12-08 19:35:00,
2016-12-08 11:44:00,62.0,45.0,-100.00,West,280,2.0,10.0,53,-99.99,,,-99.99,,2016-12-08 19:44:00,
2016-12-08 11:53:00,62.0,45.0,-100.00,West,280,2.0,10.0,53,-99.99,,,-99.99,,2016-12-08 19:53:00,
2016-12-08 14:33:00,62.0,44.0,-100.00,NNW,337,4.0,10.0,51,-99.99,,,-99.99,,2016-12-08 22:33:00,
2016-12-08 14:45:00,62.0,44.0,-100.00,NNW,337,4.0,10.0,51,-99.99,,,-99.99,,2016-12-08 22:45:00,
2016-12-08 14:53:00,62.0,44.0,-100.00,NNW,337,4.0,10.0,51,-99.99,,,-99.99,,2016-12-08 22:53:00,
2016-12-08 15:23:00,61.0,37.0,-100.00,SSW,198,5.0,12.0,40,-99.99,,,-99.99,,2016-12-08 23:23:00,
2016-12-08 15:33:00,61.0,37.0,-100.00,SSW,198,5.0,12.0,40,-99.99,,,-99.99,,2016-12-08 23:33:00,
2016-12-08 15:43:00,61.0,37.0,-100.00,SSW,198,5.0,12.0,40,-99.99,,,-99.99,,2016-12-08 23:43:00,
2016-12-08 15:54:00,61.0,37.0,-100.00,SSW,198,5.0,12.0,40,-99.99,,,-99.99,,2016-12-08 23:54:00,
2016-12-08 16:24:00,64.0,42.0,-100.00,SW,222,3.0,7.0,44,-99.99,,,-99.99,,2016-12-09 00:24:00,
2016-12-08 16:34:00,64.0,42.0,-100.00,SW,222,3.0,7.0,44,-99.99,,,-99.99,,2016-12-09 00:34:00,
2016-12-08 16:44:00,64.0,42.0,-100.00,SW,222,3.0,7.0,44,-99.99,,,-99.99,,2016-12-09 00:44:00,
2016-12-08 16:53:00,64.0,42.0,-100.00,SW,222,3.0,7.0,44,-99.99,,,-99.99,,2016-12-09 00:53:00,
2016-12-08 17:23:00,63.0,45.0,-100.00,NE,38,2.0,16.0,51,-99.99,,,-99.99,,2016-12-09 01:23:00,
2016-12-08 17:34:00,63.0,45.0,-100.00,NE,38,2.0,16.0,51,-99.99,,,-99.99,,2016-12-09 01:34:00,
2016-12-08 17:44:00,63.0,45.0,-100.00,NE,38,2.0,16.0,51,-99.99,,,-99.99,,2016-12-09 01:44:00,
2016-12-08 17:53:00,63.0,45.0,-100.00,NE,38,2.0,16.0,51,-99.99,,,-99.99,,2016-12-09 01:53:00,
2016-12-08 18:24:00,57.0,42.0,-100.00,NNW,338,13.0,23.0,57,-99.99,,,-99.99,,2016-12-09 02:24:00,
2016-12-08 18:34:00,57.0,42.0,-100.00,NNW,338,13.0,23.0,57,-99.99,,,-99.99,,2016-12-09 02:34:00,
2016-12-08 18:45:00,57.0,42.0,-100.00,NNW,338,13.0,23.0,57,-99.99,,,-99.99,,2016-12-09 02:45:00,
2016-12-08 18:53:00,57.0,42.0,-100.00,NNW,338,13.0,23.0,57,-99.99,,,-99.99,,2016-12-09 02:53:00,
2016-12-08 19:23:00,57.0,47.0,-100.00,NW,318,13.0,25.0,68,-99.99,,,-99.99,,2016-12-09 03:23:00,
2016-12-08 19:33:00,57.0,47.0,-100.00,NW,318,13.0,25.0,68,-99.99,,,-99.99,,2016-12-09 03:33:00,
2016-12-08 19:43:00,57.0,47.0,-100.00,NW,318,13.0,25.0,68,-99.99,,,-99.99,,2016-12-09 03:43:00,
2016-12-08 19:55:00,57.0,47.0,-100.00,NW,318,13.0,25.0,68,-99.99,,,-99.99,,2016-12-09 03:55:00,
2016-12-08 20:23:00,56.0,47.0,-100.00,NW,308,16.0,24.0,73,-99.99,,,-99.99,,2016-12-09 04:23:00,
2016-12-08 20:53:00,56.0,47.0,-100.00,NW,308,16.0,24.0,73,-99.99,,,-99.99,,2016-12-09 04:53:00,
2016-12-08 21:23:00,55.0,47.0,-100.00,West,273,3.0,-999.0,74,-99.99,,,-99.99,,2016-12-09 05:23:00,
2016-12-08 21:33:00,55.0,47.0,-100.00,West,273,3.0,12.0,74,-99.99,,,-99.99,,2016-12-09 05:33:00,
2016-12-08 21:43:00,55.0,47.0,-100.00,West,273,3.0,12.0,74,-99.99,,,-99.99,,2016-12-09 05:43:00,
2016-12-08 21:53:00,55.0,47.0,-100.00,West,273,3.0,12.0,74,-99.99,,,-99.99,,2016-12-09 05:53:00,
2016-12-08 22:23:00,53.0,51.0,-100.00,West,279,23.0,32.0,92,-99.99,,,-99.99,,2016-12-09 06:23:00,
2016-12-08 22:34:00,53.0,51.0,-100.00,West,279,23.0,32.0,92,-99.99,,,-99.99,,2016-12-09 06:34:00,
2016-12-08 22:44:00,53.0,51.0,-100.00,West,279,23.0,32.0,92,-99.99,,,-99.99,,2016-12-09 06:44:00,
2016-12-08 22:54:00,53.0,51.0,-100.00,West,279,23.0,32.0,92,-99.99,,,-99.99,,2016-12-09 06:54:00,